sensor_id;sensor_type;location;lat;lon;timestamp;P1;durP1;ratioP1;P2;durP2;ratioP2
7001;SDS011;3541;53.230;10.518;2023-03-03T00:00:01;28.60;;;16.37;;
7001;SDS011;3541;53.230;10.518;2023-03-03T00:02:28;27.63;;;16.30;;
7001;SDS011;3541;53.230;10.518;2023-03-03T00:04:54;24.50;;;15.20;;
7001;SDS011;3541;53.230;10.518;2023-03-03T00:07:21;27.23;;;16.70;;
7001;SDS011;3541;53.230;10.518;2023-03-03T00:09:48;27.30;;;16.40;;
7001;SDS011;3541;53.230;10.518;2023-03-03T00:12:17;26.63;;;15.73;;
7001;SDS011;3541;53.230;10.518;2023-03-03T00:14:47;27.03;;;16.17;;
7001;SDS011;3541;53.230;10.518;2023-03-03T00:17:18;26.60;;;16.10;;
7001;SDS011;3541;53.230;10.518;2023-03-03T00:19:47;26.87;;;15.90;;
7001;SDS011;3541;53.230;10.518;2023-03-03T00:22:15;27.43;;;16.63;;
7001;SDS011;3541;53.230;10.518;2023-03-03T00:24:51;26.57;;;16.20;;
7001;SDS011;3541;53.230;10.518;2023-03-03T00:27:21;28.07;;;15.77;;
7001;SDS011;3541;53.230;10.518;2023-03-03T00:29:55;27.23;;;15.80;;
7001;SDS011;3541;53.230;10.518;2023-03-03T00:32:24;28.97;;;16.27;;
7001;SDS011;3541;53.230;10.518;2023-03-03T00:34:53;29.83;;;17.33;;
7001;SDS011;3541;53.230;10.518;2023-03-03T00:37:26;28.37;;;16.17;;
7001;SDS011;3541;53.230;10.518;2023-03-03T00:40:00;27.03;;;15.93;;
7001;SDS011;3541;53.230;10.518;2023-03-03T00:42:38;30.43;;;16.70;;
7001;SDS011;3541;53.230;10.518;2023-03-03T00:45:15;30.53;;;16.97;;
7001;SDS011;3541;53.230;10.518;2023-03-03T00:47:56;26.13;;;15.70;;
7001;SDS011;3541;53.230;10.518;2023-03-03T00:50:30;31.53;;;17.07;;
7001;SDS011;3541;53.230;10.518;2023-03-03T00:53:00;29.93;;;17.20;;
7001;SDS011;3541;53.230;10.518;2023-03-03T00:55:32;28.93;;;17.13;;
7001;SDS011;3541;53.230;10.518;2023-03-03T00:57:59;37.37;;;19.40;;
7001;SDS011;3541;53.230;10.518;2023-03-03T01:00:25;37.40;;;19.77;;
7001;SDS011;3541;53.230;10.518;2023-03-03T01:02:52;36.83;;;19.77;;
7001;SDS011;3541;53.230;10.518;2023-03-03T01:05:20;35.50;;;19.73;;
7001;SDS011;3541;53.230;10.518;2023-03-03T01:07:47;38.80;;;20.50;;
7001;SDS011;3541;53.230;10.518;2023-03-03T01:10:13;36.60;;;19.67;;
7001;SDS011;3541;53.230;10.518;2023-03-03T01:12:40;39.30;;;19.60;;
7001;SDS011;3541;53.230;10.518;2023-03-03T01:15:07;35.13;;;19.03;;
7001;SDS011;3541;53.230;10.518;2023-03-03T01:17:35;34.17;;;19.20;;
7001;SDS011;3541;53.230;10.518;2023-03-03T01:20:04;32.87;;;18.47;;
7001;SDS011;3541;53.230;10.518;2023-03-03T01:22:33;37.13;;;19.07;;
7001;SDS011;3541;53.230;10.518;2023-03-03T01:24:59;41.43;;;20.43;;
7001;SDS011;3541;53.230;10.518;2023-03-03T01:27:27;45.77;;;22.27;;
7001;SDS011;3541;53.230;10.518;2023-03-03T01:29:54;41.17;;;21.53;;
7001;SDS011;3541;53.230;10.518;2023-03-03T01:32:21;43.13;;;20.13;;
7001;SDS011;3541;53.230;10.518;2023-03-03T01:34:47;35.10;;;20.50;;
7001;SDS011;3541;53.230;10.518;2023-03-03T01:37:14;39.00;;;19.90;;
7001;SDS011;3541;53.230;10.518;2023-03-03T01:39:42;40.03;;;19.97;;
7001;SDS011;3541;53.230;10.518;2023-03-03T01:42:13;41.33;;;20.97;;
7001;SDS011;3541;53.230;10.518;2023-03-03T01:44:40;45.90;;;21.83;;
7001;SDS011;3541;53.230;10.518;2023-03-03T01:47:06;49.87;;;24.57;;
7001;SDS011;3541;53.230;10.518;2023-03-03T01:49:38;49.13;;;24.20;;
7001;SDS011;3541;53.230;10.518;2023-03-03T01:52:09;71.20;;;27.87;;
7001;SDS011;3541;53.230;10.518;2023-03-03T01:54:40;70.23;;;28.03;;
7001;SDS011;3541;53.230;10.518;2023-03-03T01:57:12;70.83;;;30.10;;
7001;SDS011;3541;53.230;10.518;2023-03-03T01:59:41;71.97;;;29.40;;
7001;SDS011;3541;53.230;10.518;2023-03-03T02:02:11;82.20;;;30.27;;
7001;SDS011;3541;53.230;10.518;2023-03-03T02:04:38;73.40;;;29.70;;
7001;SDS011;3541;53.230;10.518;2023-03-03T02:07:06;72.70;;;30.17;;
7001;SDS011;3541;53.230;10.518;2023-03-03T02:09:37;74.80;;;28.87;;
7001;SDS011;3541;53.230;10.518;2023-03-03T02:12:11;67.80;;;28.50;;
7001;SDS011;3541;53.230;10.518;2023-03-03T02:14:41;66.00;;;28.13;;
7001;SDS011;3541;53.230;10.518;2023-03-03T02:17:07;67.40;;;27.53;;
7001;SDS011;3541;53.230;10.518;2023-03-03T02:19:38;67.50;;;29.07;;
7001;SDS011;3541;53.230;10.518;2023-03-03T02:22:12;70.30;;;28.37;;
7001;SDS011;3541;53.230;10.518;2023-03-03T02:24:42;77.40;;;30.63;;
7001;SDS011;3541;53.230;10.518;2023-03-03T02:27:15;71.40;;;28.73;;
7001;SDS011;3541;53.230;10.518;2023-03-03T02:29:41;67.03;;;27.97;;
7001;SDS011;3541;53.230;10.518;2023-03-03T02:32:08;65.50;;;28.93;;
7001;SDS011;3541;53.230;10.518;2023-03-03T02:34:47;70.63;;;28.40;;
7001;SDS011;3541;53.230;10.518;2023-03-03T02:37:14;67.20;;;29.33;;
7001;SDS011;3541;53.230;10.518;2023-03-03T02:39:42;66.00;;;28.40;;
7001;SDS011;3541;53.230;10.518;2023-03-03T02:42:11;64.93;;;27.47;;
7001;SDS011;3541;53.230;10.518;2023-03-03T02:44:41;73.73;;;28.47;;
7001;SDS011;3541;53.230;10.518;2023-03-03T02:47:08;57.83;;;25.77;;
7001;SDS011;3541;53.230;10.518;2023-03-03T02:49:35;71.57;;;27.83;;
7001;SDS011;3541;53.230;10.518;2023-03-03T02:52:03;59.57;;;26.70;;
7001;SDS011;3541;53.230;10.518;2023-03-03T02:54:33;54.33;;;25.53;;
7001;SDS011;3541;53.230;10.518;2023-03-03T02:57:00;60.97;;;26.17;;
7001;SDS011;3541;53.230;10.518;2023-03-03T02:59:27;58.80;;;25.20;;
7001;SDS011;3541;53.230;10.518;2023-03-03T03:01:56;60.50;;;25.10;;
7001;SDS011;3541;53.230;10.518;2023-03-03T03:04:23;67.03;;;27.13;;
7001;SDS011;3541;53.230;10.518;2023-03-03T03:06:51;61.93;;;27.17;;
7001;SDS011;3541;53.230;10.518;2023-03-03T03:09:18;61.60;;;27.10;;
7001;SDS011;3541;53.230;10.518;2023-03-03T03:11:46;61.37;;;24.37;;
7001;SDS011;3541;53.230;10.518;2023-03-03T03:14:13;56.53;;;25.00;;
7001;SDS011;3541;53.230;10.518;2023-03-03T03:16:39;57.13;;;25.33;;
7001;SDS011;3541;53.230;10.518;2023-03-03T03:19:08;59.67;;;24.80;;
7001;SDS011;3541;53.230;10.518;2023-03-03T03:21:35;58.87;;;24.47;;
7001;SDS011;3541;53.230;10.518;2023-03-03T03:24:01;55.17;;;23.53;;
7001;SDS011;3541;53.230;10.518;2023-03-03T03:26:28;56.67;;;24.63;;
7001;SDS011;3541;53.230;10.518;2023-03-03T03:28:55;63.80;;;24.20;;
7001;SDS011;3541;53.230;10.518;2023-03-03T03:31:21;55.77;;;24.40;;
7001;SDS011;3541;53.230;10.518;2023-03-03T03:33:48;49.93;;;23.27;;
7001;SDS011;3541;53.230;10.518;2023-03-03T03:36:17;55.07;;;24.80;;
7001;SDS011;3541;53.230;10.518;2023-03-03T03:38:43;50.37;;;23.90;;
7001;SDS011;3541;53.230;10.518;2023-03-03T03:41:10;49.87;;;21.97;;
7001;SDS011;3541;53.230;10.518;2023-03-03T03:43:37;50.50;;;22.03;;
7001;SDS011;3541;53.230;10.518;2023-03-03T03:46:04;50.83;;;23.00;;
7001;SDS011;3541;53.230;10.518;2023-03-03T03:48:31;48.43;;;21.60;;
7001;SDS011;3541;53.230;10.518;2023-03-03T03:50:58;47.77;;;23.43;;
7001;SDS011;3541;53.230;10.518;2023-03-03T03:53:26;52.07;;;23.07;;
7001;SDS011;3541;53.230;10.518;2023-03-03T03:55:52;48.93;;;22.37;;
7001;SDS011;3541;53.230;10.518;2023-03-03T03:58:19;48.33;;;23.20;;
7001;SDS011;3541;53.230;10.518;2023-03-03T04:00:46;53.77;;;24.07;;
7001;SDS011;3541;53.230;10.518;2023-03-03T04:03:13;54.63;;;23.50;;
7001;SDS011;3541;53.230;10.518;2023-03-03T04:05:40;55.17;;;24.07;;
7001;SDS011;3541;53.230;10.518;2023-03-03T04:08:07;56.53;;;22.90;;
7001;SDS011;3541;53.230;10.518;2023-03-03T04:10:35;59.47;;;24.63;;
7001;SDS011;3541;53.230;10.518;2023-03-03T04:13:01;55.33;;;23.20;;
7001;SDS011;3541;53.230;10.518;2023-03-03T04:15:28;50.30;;;23.50;;
7001;SDS011;3541;53.230;10.518;2023-03-03T04:17:54;53.27;;;23.83;;
7001;SDS011;3541;53.230;10.518;2023-03-03T04:20:21;54.03;;;23.57;;
7001;SDS011;3541;53.230;10.518;2023-03-03T04:22:48;54.40;;;24.23;;
7001;SDS011;3541;53.230;10.518;2023-03-03T04:25:15;51.63;;;23.77;;
7001;SDS011;3541;53.230;10.518;2023-03-03T04:27:43;52.30;;;24.10;;
7001;SDS011;3541;53.230;10.518;2023-03-03T04:30:11;48.43;;;22.83;;
7001;SDS011;3541;53.230;10.518;2023-03-03T04:32:39;52.13;;;24.37;;
7001;SDS011;3541;53.230;10.518;2023-03-03T04:35:06;44.90;;;20.97;;
7001;SDS011;3541;53.230;10.518;2023-03-03T04:37:33;46.50;;;20.60;;
7001;SDS011;3541;53.230;10.518;2023-03-03T04:40:00;49.93;;;22.47;;
7001;SDS011;3541;53.230;10.518;2023-03-03T04:42:27;49.63;;;23.83;;
7001;SDS011;3541;53.230;10.518;2023-03-03T04:44:55;54.10;;;23.53;;
7001;SDS011;3541;53.230;10.518;2023-03-03T04:47:21;48.60;;;22.43;;
7001;SDS011;3541;53.230;10.518;2023-03-03T04:49:48;58.27;;;24.90;;
7001;SDS011;3541;53.230;10.518;2023-03-03T04:52:15;52.20;;;22.70;;
7001;SDS011;3541;53.230;10.518;2023-03-03T04:54:41;52.10;;;23.30;;
7001;SDS011;3541;53.230;10.518;2023-03-03T04:57:08;51.90;;;23.10;;
7001;SDS011;3541;53.230;10.518;2023-03-03T04:59:34;51.70;;;22.40;;
7001;SDS011;3541;53.230;10.518;2023-03-03T05:02:03;52.30;;;23.90;;
7001;SDS011;3541;53.230;10.518;2023-03-03T05:04:30;57.67;;;23.13;;
7001;SDS011;3541;53.230;10.518;2023-03-03T05:06:57;51.17;;;23.33;;
7001;SDS011;3541;53.230;10.518;2023-03-03T05:09:23;51.27;;;22.43;;
7001;SDS011;3541;53.230;10.518;2023-03-03T05:11:50;54.87;;;23.70;;
7001;SDS011;3541;53.230;10.518;2023-03-03T05:14:17;52.50;;;23.03;;
7001;SDS011;3541;53.230;10.518;2023-03-03T05:16:44;52.20;;;23.80;;
7001;SDS011;3541;53.230;10.518;2023-03-03T05:19:12;55.87;;;23.47;;
7001;SDS011;3541;53.230;10.518;2023-03-03T05:21:39;49.33;;;23.20;;
7001;SDS011;3541;53.230;10.518;2023-03-03T05:24:06;44.47;;;21.17;;
7001;SDS011;3541;53.230;10.518;2023-03-03T05:26:33;50.93;;;22.40;;
7001;SDS011;3541;53.230;10.518;2023-03-03T05:28:59;49.67;;;23.00;;
7001;SDS011;3541;53.230;10.518;2023-03-03T05:31:26;48.10;;;21.50;;
7001;SDS011;3541;53.230;10.518;2023-03-03T05:33:53;50.03;;;22.30;;
7001;SDS011;3541;53.230;10.518;2023-03-03T05:36:21;51.47;;;21.23;;
7001;SDS011;3541;53.230;10.518;2023-03-03T05:38:48;48.57;;;22.10;;
7001;SDS011;3541;53.230;10.518;2023-03-03T05:41:14;49.90;;;22.43;;
7001;SDS011;3541;53.230;10.518;2023-03-03T05:43:41;44.30;;;20.20;;
7001;SDS011;3541;53.230;10.518;2023-03-03T05:46:08;45.03;;;21.40;;
7001;SDS011;3541;53.230;10.518;2023-03-03T05:48:35;42.00;;;20.20;;
7001;SDS011;3541;53.230;10.518;2023-03-03T05:51:02;40.90;;;19.73;;
7001;SDS011;3541;53.230;10.518;2023-03-03T05:53:30;48.83;;;20.57;;
7001;SDS011;3541;53.230;10.518;2023-03-03T05:55:57;46.07;;;21.40;;
7001;SDS011;3541;53.230;10.518;2023-03-03T05:58:23;46.10;;;21.17;;
7001;SDS011;3541;53.230;10.518;2023-03-03T06:00:50;41.70;;;20.03;;
7001;SDS011;3541;53.230;10.518;2023-03-03T06:03:16;45.77;;;20.23;;
7001;SDS011;3541;53.230;10.518;2023-03-03T06:05:43;44.27;;;21.20;;
7001;SDS011;3541;53.230;10.518;2023-03-03T06:08:10;40.07;;;19.40;;
7001;SDS011;3541;53.230;10.518;2023-03-03T06:10:38;49.80;;;21.63;;
7001;SDS011;3541;53.230;10.518;2023-03-03T06:13:04;45.13;;;20.93;;
7001;SDS011;3541;53.230;10.518;2023-03-03T06:15:31;45.43;;;21.70;;
7001;SDS011;3541;53.230;10.518;2023-03-03T06:17:57;50.73;;;21.10;;
7001;SDS011;3541;53.230;10.518;2023-03-03T06:20:24;48.30;;;20.80;;
7001;SDS011;3541;53.230;10.518;2023-03-03T06:22:51;48.50;;;22.00;;
7001;SDS011;3541;53.230;10.518;2023-03-03T06:25:17;43.13;;;20.20;;
7001;SDS011;3541;53.230;10.518;2023-03-03T06:27:45;48.37;;;22.47;;
7001;SDS011;3541;53.230;10.518;2023-03-03T06:30:12;47.90;;;20.53;;
7001;SDS011;3541;53.230;10.518;2023-03-03T06:32:39;41.43;;;20.10;;
7001;SDS011;3541;53.230;10.518;2023-03-03T06:35:06;39.80;;;19.33;;
7001;SDS011;3541;53.230;10.518;2023-03-03T06:37:33;41.40;;;20.03;;
7001;SDS011;3541;53.230;10.518;2023-03-03T06:39:59;39.87;;;19.33;;
7001;SDS011;3541;53.230;10.518;2023-03-03T06:42:26;37.97;;;19.27;;
7001;SDS011;3541;53.230;10.518;2023-03-03T06:44:54;44.07;;;20.50;;
7001;SDS011;3541;53.230;10.518;2023-03-03T06:47:21;39.43;;;19.43;;
7001;SDS011;3541;53.230;10.518;2023-03-03T06:49:48;45.70;;;20.20;;
7001;SDS011;3541;53.230;10.518;2023-03-03T06:52:16;36.63;;;18.30;;
7001;SDS011;3541;53.230;10.518;2023-03-03T06:54:45;40.53;;;19.20;;
7001;SDS011;3541;53.230;10.518;2023-03-03T06:57:16;41.13;;;19.67;;
7001;SDS011;3541;53.230;10.518;2023-03-03T06:59:47;42.47;;;19.53;;
7001;SDS011;3541;53.230;10.518;2023-03-03T07:02:18;41.40;;;19.63;;
7001;SDS011;3541;53.230;10.518;2023-03-03T07:04:46;41.50;;;19.30;;
7001;SDS011;3541;53.230;10.518;2023-03-03T07:07:14;37.53;;;19.10;;
7001;SDS011;3541;53.230;10.518;2023-03-03T07:09:45;41.07;;;20.37;;
7001;SDS011;3541;53.230;10.518;2023-03-03T07:12:14;40.03;;;19.10;;
7001;SDS011;3541;53.230;10.518;2023-03-03T07:14:44;41.97;;;19.87;;
7001;SDS011;3541;53.230;10.518;2023-03-03T07:17:15;43.60;;;19.57;;
7001;SDS011;3541;53.230;10.518;2023-03-03T07:19:46;39.63;;;19.17;;
7001;SDS011;3541;53.230;10.518;2023-03-03T07:22:14;45.37;;;20.70;;
7001;SDS011;3541;53.230;10.518;2023-03-03T07:24:43;49.10;;;19.33;;
7001;SDS011;3541;53.230;10.518;2023-03-03T07:27:13;39.50;;;20.67;;
7001;SDS011;3541;53.230;10.518;2023-03-03T07:29:45;41.73;;;19.27;;
7001;SDS011;3541;53.230;10.518;2023-03-03T07:32:25;41.10;;;19.10;;
7001;SDS011;3541;53.230;10.518;2023-03-03T07:34:53;43.10;;;20.23;;
7001;SDS011;3541;53.230;10.518;2023-03-03T07:37:24;37.43;;;18.27;;
7001;SDS011;3541;53.230;10.518;2023-03-03T07:39:55;41.07;;;18.77;;
7001;SDS011;3541;53.230;10.518;2023-03-03T07:42:22;38.13;;;18.73;;
7001;SDS011;3541;53.230;10.518;2023-03-03T07:44:51;39.23;;;18.27;;
7001;SDS011;3541;53.230;10.518;2023-03-03T07:47:21;39.60;;;18.13;;
7001;SDS011;3541;53.230;10.518;2023-03-03T07:49:51;38.70;;;17.90;;
7001;SDS011;3541;53.230;10.518;2023-03-03T07:52:23;41.27;;;18.67;;
7001;SDS011;3541;53.230;10.518;2023-03-03T07:54:52;36.23;;;18.23;;
7001;SDS011;3541;53.230;10.518;2023-03-03T07:57:21;36.03;;;18.67;;
7001;SDS011;3541;53.230;10.518;2023-03-03T07:59:49;38.37;;;18.10;;
7001;SDS011;3541;53.230;10.518;2023-03-03T08:02:28;36.87;;;17.47;;
7001;SDS011;3541;53.230;10.518;2023-03-03T08:05:22;39.30;;;19.90;;
7001;SDS011;3541;53.230;10.518;2023-03-03T08:07:55;34.40;;;18.00;;
7001;SDS011;3541;53.230;10.518;2023-03-03T08:10:37;37.63;;;18.47;;
7001;SDS011;3541;53.230;10.518;2023-03-03T08:13:08;42.60;;;19.03;;
7001;SDS011;3541;53.230;10.518;2023-03-03T08:15:42;34.57;;;17.17;;
7001;SDS011;3541;53.230;10.518;2023-03-03T08:18:14;34.87;;;17.07;;
7001;SDS011;3541;53.230;10.518;2023-03-03T08:20:48;37.93;;;18.23;;
7001;SDS011;3541;53.230;10.518;2023-03-03T08:23:16;39.53;;;18.23;;
7001;SDS011;3541;53.230;10.518;2023-03-03T08:25:44;32.10;;;16.67;;
7001;SDS011;3541;53.230;10.518;2023-03-03T08:28:11;30.77;;;16.83;;
7001;SDS011;3541;53.230;10.518;2023-03-03T08:30:39;39.20;;;18.27;;
7001;SDS011;3541;53.230;10.518;2023-03-03T08:33:06;35.40;;;17.03;;
7001;SDS011;3541;53.230;10.518;2023-03-03T08:35:32;31.53;;;15.93;;
7001;SDS011;3541;53.230;10.518;2023-03-03T08:38:00;29.63;;;15.47;;
7001;SDS011;3541;53.230;10.518;2023-03-03T08:40:27;30.83;;;17.07;;
7001;SDS011;3541;53.230;10.518;2023-03-03T08:42:53;30.17;;;16.40;;
7001;SDS011;3541;53.230;10.518;2023-03-03T08:45:22;31.10;;;16.57;;
7001;SDS011;3541;53.230;10.518;2023-03-03T08:47:49;32.77;;;15.90;;
7001;SDS011;3541;53.230;10.518;2023-03-03T08:50:15;32.37;;;16.43;;
7001;SDS011;3541;53.230;10.518;2023-03-03T08:52:42;34.00;;;16.87;;
7001;SDS011;3541;53.230;10.518;2023-03-03T08:55:10;35.53;;;17.40;;
7001;SDS011;3541;53.230;10.518;2023-03-03T08:57:37;33.53;;;17.93;;
7001;SDS011;3541;53.230;10.518;2023-03-03T09:00:05;32.57;;;16.30;;
7001;SDS011;3541;53.230;10.518;2023-03-03T09:02:32;32.70;;;16.57;;
7001;SDS011;3541;53.230;10.518;2023-03-03T09:04:59;34.23;;;16.70;;
7001;SDS011;3541;53.230;10.518;2023-03-03T09:07:26;29.50;;;15.70;;
7001;SDS011;3541;53.230;10.518;2023-03-03T09:09:52;31.77;;;15.93;;
7001;SDS011;3541;53.230;10.518;2023-03-03T09:12:21;28.93;;;15.27;;
7001;SDS011;3541;53.230;10.518;2023-03-03T09:14:54;28.80;;;15.03;;
7001;SDS011;3541;53.230;10.518;2023-03-03T09:17:24;30.77;;;16.10;;
7001;SDS011;3541;53.230;10.518;2023-03-03T09:20:01;31.30;;;16.57;;
7001;SDS011;3541;53.230;10.518;2023-03-03T09:22:42;34.03;;;17.63;;
7001;SDS011;3541;53.230;10.518;2023-03-03T09:25:14;29.93;;;15.23;;
7001;SDS011;3541;53.230;10.518;2023-03-03T09:27:48;29.37;;;15.00;;
7001;SDS011;3541;53.230;10.518;2023-03-03T09:30:26;27.07;;;14.77;;
7001;SDS011;3541;53.230;10.518;2023-03-03T09:33:00;25.67;;;14.03;;
7001;SDS011;3541;53.230;10.518;2023-03-03T09:35:41;28.47;;;14.97;;
7001;SDS011;3541;53.230;10.518;2023-03-03T09:38:12;26.37;;;14.07;;
7001;SDS011;3541;53.230;10.518;2023-03-03T09:40:50;25.50;;;14.43;;
7001;SDS011;3541;53.230;10.518;2023-03-03T09:43:33;26.87;;;14.77;;
7001;SDS011;3541;53.230;10.518;2023-03-03T09:46:07;27.20;;;14.50;;
7001;SDS011;3541;53.230;10.518;2023-03-03T09:48:43;28.27;;;15.00;;
7001;SDS011;3541;53.230;10.518;2023-03-03T09:51:29;24.57;;;13.73;;
7001;SDS011;3541;53.230;10.518;2023-03-03T09:54:12;22.97;;;13.40;;
7001;SDS011;3541;53.230;10.518;2023-03-03T09:56:46;27.90;;;13.93;;
7001;SDS011;3541;53.230;10.518;2023-03-03T09:59:23;25.67;;;13.53;;
7001;SDS011;3541;53.230;10.518;2023-03-03T10:02:00;26.00;;;13.53;;
7001;SDS011;3541;53.230;10.518;2023-03-03T10:04:41;25.30;;;13.87;;
7001;SDS011;3541;53.230;10.518;2023-03-03T10:07:17;23.97;;;13.37;;
7001;SDS011;3541;53.230;10.518;2023-03-03T10:09:55;20.87;;;12.27;;
7001;SDS011;3541;53.230;10.518;2023-03-03T10:12:31;23.07;;;12.87;;
7001;SDS011;3541;53.230;10.518;2023-03-03T10:15:16;26.33;;;13.27;;
7001;SDS011;3541;53.230;10.518;2023-03-03T10:17:52;23.83;;;12.63;;
7001;SDS011;3541;53.230;10.518;2023-03-03T10:20:29;24.87;;;13.03;;
7001;SDS011;3541;53.230;10.518;2023-03-03T10:23:06;22.10;;;12.87;;
7001;SDS011;3541;53.230;10.518;2023-03-03T10:25:47;24.53;;;13.03;;
7001;SDS011;3541;53.230;10.518;2023-03-03T10:28:29;21.30;;;11.87;;
7001;SDS011;3541;53.230;10.518;2023-03-03T10:31:15;22.53;;;12.27;;
7001;SDS011;3541;53.230;10.518;2023-03-03T10:33:52;23.13;;;12.93;;
7001;SDS011;3541;53.230;10.518;2023-03-03T10:36:27;21.90;;;12.33;;
7001;SDS011;3541;53.230;10.518;2023-03-03T10:39:18;22.67;;;12.90;;
7001;SDS011;3541;53.230;10.518;2023-03-03T10:41:55;22.77;;;12.70;;
7001;SDS011;3541;53.230;10.518;2023-03-03T10:44:34;21.60;;;12.73;;
7001;SDS011;3541;53.230;10.518;2023-03-03T10:47:20;22.17;;;12.13;;
7001;SDS011;3541;53.230;10.518;2023-03-03T10:49:59;17.00;;;10.87;;
7001;SDS011;3541;53.230;10.518;2023-03-03T10:52:37;20.20;;;11.60;;
7001;SDS011;3541;53.230;10.518;2023-03-03T11:00:58;18.60;;;11.30;;
7001;SDS011;3541;53.230;10.518;2023-03-03T11:03:39;19.40;;;10.97;;
7001;SDS011;3541;53.230;10.518;2023-03-03T11:06:24;19.43;;;11.77;;
7001;SDS011;3541;53.230;10.518;2023-03-03T11:08:55;17.60;;;10.73;;
7001;SDS011;3541;53.230;10.518;2023-03-03T11:11:30;17.87;;;11.50;;
7001;SDS011;3541;53.230;10.518;2023-03-03T11:14:08;17.70;;;10.47;;
7001;SDS011;3541;53.230;10.518;2023-03-03T11:16:47;17.53;;;10.87;;
7001;SDS011;3541;53.230;10.518;2023-03-03T11:19:33;16.73;;;10.17;;
7001;SDS011;3541;53.230;10.518;2023-03-03T11:22:12;17.27;;;11.13;;
7001;SDS011;3541;53.230;10.518;2023-03-03T11:25:00;17.30;;;10.80;;
7001;SDS011;3541;53.230;10.518;2023-03-03T11:27:39;18.37;;;10.80;;
7001;SDS011;3541;53.230;10.518;2023-03-03T11:30:25;15.60;;;9.80;;
7001;SDS011;3541;53.230;10.518;2023-03-03T11:33:00;15.77;;;9.77;;
7001;SDS011;3541;53.230;10.518;2023-03-03T11:35:31;13.67;;;9.33;;
7001;SDS011;3541;53.230;10.518;2023-03-03T11:38:09;13.00;;;8.30;;
7001;SDS011;3541;53.230;10.518;2023-03-03T11:40:46;12.70;;;8.90;;
7001;SDS011;3541;53.230;10.518;2023-03-03T11:43:16;12.10;;;7.53;;
7001;SDS011;3541;53.230;10.518;2023-03-03T11:45:47;13.07;;;7.57;;
7001;SDS011;3541;53.230;10.518;2023-03-03T11:48:20;12.83;;;8.30;;
7001;SDS011;3541;53.230;10.518;2023-03-03T11:50:54;12.30;;;7.97;;
7001;SDS011;3541;53.230;10.518;2023-03-03T11:53:28;12.60;;;7.87;;
7001;SDS011;3541;53.230;10.518;2023-03-03T11:56:04;12.60;;;8.33;;
7001;SDS011;3541;53.230;10.518;2023-03-03T11:58:43;11.63;;;8.33;;
7001;SDS011;3541;53.230;10.518;2023-03-03T12:01:14;14.40;;;8.20;;
7001;SDS011;3541;53.230;10.518;2023-03-03T12:03:47;12.43;;;7.67;;
7001;SDS011;3541;53.230;10.518;2023-03-03T12:06:22;11.77;;;7.83;;
7001;SDS011;3541;53.230;10.518;2023-03-03T12:09:00;12.23;;;8.47;;
7001;SDS011;3541;53.230;10.518;2023-03-03T12:11:37;12.93;;;8.50;;
7001;SDS011;3541;53.230;10.518;2023-03-03T12:14:13;14.07;;;8.77;;
7001;SDS011;3541;53.230;10.518;2023-03-03T12:16:52;14.97;;;8.83;;
7001;SDS011;3541;53.230;10.518;2023-03-03T12:19:27;15.20;;;9.13;;
7001;SDS011;3541;53.230;10.518;2023-03-03T12:22:04;13.27;;;8.27;;
7001;SDS011;3541;53.230;10.518;2023-03-03T12:24:40;13.07;;;7.70;;
7001;SDS011;3541;53.230;10.518;2023-03-03T12:27:25;12.53;;;8.23;;
7001;SDS011;3541;53.230;10.518;2023-03-03T12:30:00;13.60;;;8.57;;
7001;SDS011;3541;53.230;10.518;2023-03-03T12:32:42;13.53;;;7.87;;
7001;SDS011;3541;53.230;10.518;2023-03-03T12:35:25;10.97;;;7.40;;
7001;SDS011;3541;53.230;10.518;2023-03-03T12:38:01;15.57;;;8.07;;
7001;SDS011;3541;53.230;10.518;2023-03-03T12:40:37;13.37;;;8.37;;
7001;SDS011;3541;53.230;10.518;2023-03-03T12:43:14;13.10;;;7.93;;
7001;SDS011;3541;53.230;10.518;2023-03-03T12:45:50;12.83;;;7.17;;
7001;SDS011;3541;53.230;10.518;2023-03-03T12:48:24;13.70;;;7.90;;
7001;SDS011;3541;53.230;10.518;2023-03-03T12:51:02;12.43;;;7.90;;
7001;SDS011;3541;53.230;10.518;2023-03-03T12:53:41;10.07;;;6.77;;
7001;SDS011;3541;53.230;10.518;2023-03-03T12:56:15;11.83;;;7.37;;
7001;SDS011;3541;53.230;10.518;2023-03-03T12:58:49;12.20;;;7.83;;
7001;SDS011;3541;53.230;10.518;2023-03-03T13:01:29;13.60;;;8.03;;
7001;SDS011;3541;53.230;10.518;2023-03-03T13:04:09;12.63;;;7.70;;
7001;SDS011;3541;53.230;10.518;2023-03-03T13:06:40;14.57;;;8.30;;
7001;SDS011;3541;53.230;10.518;2023-03-03T13:09:20;12.97;;;7.67;;
7001;SDS011;3541;53.230;10.518;2023-03-03T13:11:56;12.57;;;7.37;;
7001;SDS011;3541;53.230;10.518;2023-03-03T13:14:31;12.37;;;7.27;;
7001;SDS011;3541;53.230;10.518;2023-03-03T13:17:08;12.47;;;7.23;;
7001;SDS011;3541;53.230;10.518;2023-03-03T13:19:43;12.43;;;6.93;;
7001;SDS011;3541;53.230;10.518;2023-03-03T13:22:16;12.53;;;7.17;;
7001;SDS011;3541;53.230;10.518;2023-03-03T13:24:56;12.93;;;6.90;;
7001;SDS011;3541;53.230;10.518;2023-03-03T13:27:30;12.23;;;7.30;;
7001;SDS011;3541;53.230;10.518;2023-03-03T13:30:00;10.70;;;6.33;;
7001;SDS011;3541;53.230;10.518;2023-03-03T13:32:30;10.67;;;6.53;;
7001;SDS011;3541;53.230;10.518;2023-03-03T13:35:05;11.17;;;6.60;;
7001;SDS011;3541;53.230;10.518;2023-03-03T13:37:34;12.37;;;7.10;;
7001;SDS011;3541;53.230;10.518;2023-03-03T13:40:08;11.80;;;6.70;;
7001;SDS011;3541;53.230;10.518;2023-03-03T13:42:42;12.13;;;6.93;;
7001;SDS011;3541;53.230;10.518;2023-03-03T13:45:16;10.83;;;6.33;;
7001;SDS011;3541;53.230;10.518;2023-03-03T13:47:45;10.97;;;6.47;;
7001;SDS011;3541;53.230;10.518;2023-03-03T13:50:19;10.93;;;6.10;;
7001;SDS011;3541;53.230;10.518;2023-03-03T13:52:52;9.43;;;5.43;;
7001;SDS011;3541;53.230;10.518;2023-03-03T13:55:32;10.60;;;5.63;;
7001;SDS011;3541;53.230;10.518;2023-03-03T13:58:05;9.40;;;5.27;;
7001;SDS011;3541;53.230;10.518;2023-03-03T14:00:55;8.73;;;5.53;;
7001;SDS011;3541;53.230;10.518;2023-03-03T14:03:39;10.53;;;6.37;;
7001;SDS011;3541;53.230;10.518;2023-03-03T14:06:14;10.27;;;5.67;;
7001;SDS011;3541;53.230;10.518;2023-03-03T14:08:50;10.07;;;6.10;;
7001;SDS011;3541;53.230;10.518;2023-03-03T14:11:34;11.17;;;5.87;;
7001;SDS011;3541;53.230;10.518;2023-03-03T14:14:08;9.80;;;6.07;;
7001;SDS011;3541;53.230;10.518;2023-03-03T14:16:48;11.47;;;6.37;;
7001;SDS011;3541;53.230;10.518;2023-03-03T14:19:16;8.77;;;5.83;;
7001;SDS011;3541;53.230;10.518;2023-03-03T14:21:51;9.90;;;5.90;;
7001;SDS011;3541;53.230;10.518;2023-03-03T14:24:29;10.67;;;6.03;;
7001;SDS011;3541;53.230;10.518;2023-03-03T14:26:58;11.83;;;5.87;;
7001;SDS011;3541;53.230;10.518;2023-03-03T14:29:29;10.77;;;5.90;;
7001;SDS011;3541;53.230;10.518;2023-03-03T14:31:58;7.43;;;5.27;;
7001;SDS011;3541;53.230;10.518;2023-03-03T14:34:33;10.93;;;6.10;;
7001;SDS011;3541;53.230;10.518;2023-03-03T14:37:22;10.60;;;5.77;;
7001;SDS011;3541;53.230;10.518;2023-03-03T14:39:58;10.27;;;6.00;;
7001;SDS011;3541;53.230;10.518;2023-03-03T14:42:34;11.27;;;5.30;;
7001;SDS011;3541;53.230;10.518;2023-03-03T14:45:14;11.07;;;5.90;;
7001;SDS011;3541;53.230;10.518;2023-03-03T14:47:46;10.90;;;6.23;;
7001;SDS011;3541;53.230;10.518;2023-03-03T14:50:27;11.77;;;7.13;;
7001;SDS011;3541;53.230;10.518;2023-03-03T14:53:04;9.97;;;5.83;;
7001;SDS011;3541;53.230;10.518;2023-03-03T14:55:37;16.90;;;11.17;;
7001;SDS011;3541;53.230;10.518;2023-03-03T14:58:08;8.30;;;6.17;;
7001;SDS011;3541;53.230;10.518;2023-03-03T15:01:06;19.63;;;11.33;;
7001;SDS011;3541;53.230;10.518;2023-03-03T15:03:47;9.53;;;6.40;;
7001;SDS011;3541;53.230;10.518;2023-03-03T15:06:27;7.80;;;4.83;;
7001;SDS011;3541;53.230;10.518;2023-03-03T15:08:55;6.90;;;5.00;;